sensor_id;sensor_type;location;lat;lon;timestamp;P1;durP1;ratioP1;P2;durP2;ratioP2
9248;SDS011;4660;41.768;26.198;2022-10-16T00:01:55;7.30;;;4.47;;
9248;SDS011;4660;41.768;26.198;2022-10-16T00:04:21;8.50;;;4.37;;
9248;SDS011;4660;41.768;26.198;2022-10-16T00:06:46;5.93;;;4.33;;
9248;SDS011;4660;41.768;26.198;2022-10-16T00:09:13;8.90;;;4.43;;
9248;SDS011;4660;41.768;26.198;2022-10-16T00:11:39;6.80;;;3.83;;
9248;SDS011;4660;41.768;26.198;2022-10-16T00:14:10;5.70;;;3.73;;
9248;SDS011;4660;41.768;26.198;2022-10-16T00:16:37;6.03;;;4.07;;
9248;SDS011;4660;41.768;26.198;2022-10-16T00:19:03;9.93;;;4.50;;
9248;SDS011;4660;41.768;26.198;2022-10-16T00:21:29;8.60;;;4.13;;
9248;SDS011;4660;41.768;26.198;2022-10-16T00:24:00;8.47;;;4.00;;
9248;SDS011;4660;41.768;26.198;2022-10-16T00:26:28;7.73;;;4.20;;
9248;SDS011;4660;41.768;26.198;2022-10-16T00:28:55;8.77;;;4.20;;
9248;SDS011;4660;41.768;26.198;2022-10-16T00:31:22;6.10;;;4.13;;
9248;SDS011;4660;41.768;26.198;2022-10-16T00:33:48;7.93;;;4.33;;
9248;SDS011;4660;41.768;26.198;2022-10-16T00:36:15;9.67;;;4.23;;
9248;SDS011;4660;41.768;26.198;2022-10-16T00:38:43;10.80;;;4.50;;
9248;SDS011;4660;41.768;26.198;2022-10-16T00:41:11;5.33;;;3.73;;
9248;SDS011;4660;41.768;26.198;2022-10-16T00:43:43;8.90;;;4.53;;
9248;SDS011;4660;41.768;26.198;2022-10-16T00:46:14;6.13;;;4.07;;
9248;SDS011;4660;41.768;26.198;2022-10-16T00:48:50;4.50;;;3.90;;
9248;SDS011;4660;41.768;26.198;2022-10-16T00:51:21;8.70;;;4.03;;
9248;SDS011;4660;41.768;26.198;2022-10-16T00:53:51;8.63;;;3.87;;
9248;SDS011;4660;41.768;26.198;2022-10-16T00:56:17;6.33;;;4.47;;
9248;SDS011;4660;41.768;26.198;2022-10-16T00:58:43;9.43;;;4.90;;
9248;SDS011;4660;41.768;26.198;2022-10-16T01:01:09;4.67;;;3.63;;
9248;SDS011;4660;41.768;26.198;2022-10-16T01:03:35;6.30;;;3.93;;
9248;SDS011;4660;41.768;26.198;2022-10-16T01:06:07;5.20;;;4.20;;
9248;SDS011;4660;41.768;26.198;2022-10-16T01:11:45;5.13;;;3.97;;
9248;SDS011;4660;41.768;26.198;2022-10-16T01:22:48;7.53;;;4.37;;
9248;SDS011;4660;41.768;26.198;2022-10-16T01:25:19;6.63;;;4.07;;
9248;SDS011;4660;41.768;26.198;2022-10-16T01:27:55;3.97;;;3.57;;
9248;SDS011;4660;41.768;26.198;2022-10-16T01:30:29;6.73;;;3.97;;
9248;SDS011;4660;41.768;26.198;2022-10-16T01:32:59;5.83;;;4.30;;
9248;SDS011;4660;41.768;26.198;2022-10-16T01:35:56;4.87;;;4.07;;
9248;SDS011;4660;41.768;26.198;2022-10-16T01:38:31;6.23;;;4.27;;
9248;SDS011;4660;41.768;26.198;2022-10-16T01:41:02;9.10;;;3.87;;
9248;SDS011;4660;41.768;26.198;2022-10-16T01:43:36;10.20;;;4.17;;
9248;SDS011;4660;41.768;26.198;2022-10-16T01:46:10;6.47;;;3.77;;
9248;SDS011;4660;41.768;26.198;2022-10-16T01:48:38;7.20;;;4.30;;
9248;SDS011;4660;41.768;26.198;2022-10-16T01:51:05;8.07;;;4.10;;
9248;SDS011;4660;41.768;26.198;2022-10-16T01:53:33;6.23;;;4.17;;
9248;SDS011;4660;41.768;26.198;2022-10-16T01:56:00;16.63;;;5.33;;
9248;SDS011;4660;41.768;26.198;2022-10-16T01:58:29;7.53;;;4.47;;
9248;SDS011;4660;41.768;26.198;2022-10-16T02:00:59;7.87;;;4.20;;
9248;SDS011;4660;41.768;26.198;2022-10-16T02:03:27;6.93;;;4.80;;
9248;SDS011;4660;41.768;26.198;2022-10-16T02:05:53;9.50;;;4.50;;
9248;SDS011;4660;41.768;26.198;2022-10-16T02:08:22;9.53;;;4.67;;
9248;SDS011;4660;41.768;26.198;2022-10-16T02:10:51;6.50;;;4.87;;
9248;SDS011;4660;41.768;26.198;2022-10-16T02:13:18;5.83;;;4.47;;
9248;SDS011;4660;41.768;26.198;2022-10-16T02:15:49;9.67;;;4.70;;
9248;SDS011;4660;41.768;26.198;2022-10-16T02:18:15;7.93;;;4.70;;
9248;SDS011;4660;41.768;26.198;2022-10-16T02:20:47;10.73;;;5.13;;
9248;SDS011;4660;41.768;26.198;2022-10-16T02:23:18;5.83;;;4.80;;
9248;SDS011;4660;41.768;26.198;2022-10-16T02:25:52;7.83;;;5.43;;
9248;SDS011;4660;41.768;26.198;2022-10-16T02:28:21;8.37;;;5.63;;
9248;SDS011;4660;41.768;26.198;2022-10-16T02:30:57;10.27;;;7.17;;
9248;SDS011;4660;41.768;26.198;2022-10-16T02:33:26;9.63;;;7.10;;
9248;SDS011;4660;41.768;26.198;2022-10-16T02:35:54;10.33;;;6.70;;
9248;SDS011;4660;41.768;26.198;2022-10-16T02:38:21;10.33;;;7.00;;
9248;SDS011;4660;41.768;26.198;2022-10-16T02:40:48;9.70;;;6.50;;
9248;SDS011;4660;41.768;26.198;2022-10-16T02:43:14;8.07;;;6.63;;
9248;SDS011;4660;41.768;26.198;2022-10-16T02:45:41;10.63;;;7.47;;
9248;SDS011;4660;41.768;26.198;2022-10-16T02:48:06;9.53;;;7.00;;
9248;SDS011;4660;41.768;26.198;2022-10-16T02:50:32;11.40;;;6.97;;
9248;SDS011;4660;41.768;26.198;2022-10-16T02:52:58;12.77;;;7.13;;
9248;SDS011;4660;41.768;26.198;2022-10-16T02:55:23;10.20;;;8.27;;
9248;SDS011;4660;41.768;26.198;2022-10-16T02:57:49;11.43;;;7.70;;
9248;SDS011;4660;41.768;26.198;2022-10-16T03:00:15;11.63;;;7.40;;
9248;SDS011;4660;41.768;26.198;2022-10-16T03:02:42;14.27;;;8.57;;
9248;SDS011;4660;41.768;26.198;2022-10-16T03:05:08;12.13;;;7.70;;
9248;SDS011;4660;41.768;26.198;2022-10-16T03:07:35;12.87;;;7.50;;
9248;SDS011;4660;41.768;26.198;2022-10-16T03:10:00;17.83;;;8.20;;
9248;SDS011;4660;41.768;26.198;2022-10-16T03:12:26;11.20;;;8.27;;
9248;SDS011;4660;41.768;26.198;2022-10-16T03:14:52;13.83;;;8.00;;
9248;SDS011;4660;41.768;26.198;2022-10-16T03:17:18;13.07;;;7.37;;
9248;SDS011;4660;41.768;26.198;2022-10-16T03:19:44;10.37;;;7.17;;
9248;SDS011;4660;41.768;26.198;2022-10-16T03:22:10;10.70;;;6.87;;
9248;SDS011;4660;41.768;26.198;2022-10-16T03:24:35;10.37;;;6.53;;
9248;SDS011;4660;41.768;26.198;2022-10-16T03:27:01;11.93;;;7.77;;
9248;SDS011;4660;41.768;26.198;2022-10-16T03:29:27;14.83;;;7.67;;
9248;SDS011;4660;41.768;26.198;2022-10-16T03:31:54;7.93;;;6.70;;
9248;SDS011;4660;41.768;26.198;2022-10-16T03:34:20;7.53;;;6.83;;
9248;SDS011;4660;41.768;26.198;2022-10-16T03:36:46;12.20;;;7.13;;
9248;SDS011;4660;41.768;26.198;2022-10-16T03:39:11;11.27;;;6.37;;
9248;SDS011;4660;41.768;26.198;2022-10-16T03:41:37;11.50;;;7.17;;
9248;SDS011;4660;41.768;26.198;2022-10-16T03:44:02;14.23;;;7.40;;
9248;SDS011;4660;41.768;26.198;2022-10-16T03:46:28;7.27;;;6.17;;
9248;SDS011;4660;41.768;26.198;2022-10-16T03:48:54;11.50;;;7.10;;
9248;SDS011;4660;41.768;26.198;2022-10-16T03:51:20;10.13;;;6.30;;
9248;SDS011;4660;41.768;26.198;2022-10-16T03:53:46;11.27;;;6.20;;
9248;SDS011;4660;41.768;26.198;2022-10-16T03:56:11;10.10;;;6.80;;
9248;SDS011;4660;41.768;26.198;2022-10-16T03:58:37;10.87;;;6.23;;
9248;SDS011;4660;41.768;26.198;2022-10-16T04:01:02;12.93;;;6.23;;
9248;SDS011;4660;41.768;26.198;2022-10-16T04:03:28;8.67;;;6.50;;
9248;SDS011;4660;41.768;26.198;2022-10-16T04:05:54;8.53;;;6.73;;
9248;SDS011;4660;41.768;26.198;2022-10-16T04:08:19;12.07;;;6.87;;
9248;SDS011;4660;41.768;26.198;2022-10-16T04:10:45;7.67;;;6.40;;
9248;SDS011;4660;41.768;26.198;2022-10-16T04:13:11;10.63;;;6.77;;
9248;SDS011;4660;41.768;26.198;2022-10-16T04:15:37;7.10;;;6.17;;
9248;SDS011;4660;41.768;26.198;2022-10-16T04:18:03;9.37;;;6.20;;
9248;SDS011;4660;41.768;26.198;2022-10-16T04:20:29;10.13;;;7.10;;
9248;SDS011;4660;41.768;26.198;2022-10-16T04:22:55;10.27;;;6.57;;
9248;SDS011;4660;41.768;26.198;2022-10-16T04:25:20;9.00;;;6.40;;
9248;SDS011;4660;41.768;26.198;2022-10-16T04:27:46;10.27;;;6.30;;
9248;SDS011;4660;41.768;26.198;2022-10-16T04:30:12;9.80;;;6.20;;
9248;SDS011;4660;41.768;26.198;2022-10-16T04:32:38;11.97;;;6.30;;
9248;SDS011;4660;41.768;26.198;2022-10-16T04:35:04;13.07;;;7.07;;
9248;SDS011;4660;41.768;26.198;2022-10-16T04:37:29;7.13;;;5.90;;
9248;SDS011;4660;41.768;26.198;2022-10-16T04:39:55;8.83;;;5.67;;
9248;SDS011;4660;41.768;26.198;2022-10-16T04:42:21;10.07;;;5.53;;
9248;SDS011;4660;41.768;26.198;2022-10-16T04:44:46;9.13;;;6.43;;
9248;SDS011;4660;41.768;26.198;2022-10-16T04:47:12;8.00;;;5.77;;
9248;SDS011;4660;41.768;26.198;2022-10-16T04:49:38;14.23;;;6.70;;
9248;SDS011;4660;41.768;26.198;2022-10-16T04:52:04;8.93;;;6.60;;
9248;SDS011;4660;41.768;26.198;2022-10-16T04:54:30;13.53;;;6.73;;
9248;SDS011;4660;41.768;26.198;2022-10-16T04:56:55;6.77;;;6.17;;
9248;SDS011;4660;41.768;26.198;2022-10-16T04:59:21;9.70;;;6.23;;
9248;SDS011;4660;41.768;26.198;2022-10-16T05:01:48;12.63;;;5.93;;
9248;SDS011;4660;41.768;26.198;2022-10-16T05:04:14;10.00;;;6.47;;
9248;SDS011;4660;41.768;26.198;2022-10-16T05:06:40;11.23;;;5.77;;
9248;SDS011;4660;41.768;26.198;2022-10-16T05:09:06;10.23;;;6.20;;
9248;SDS011;4660;41.768;26.198;2022-10-16T05:11:33;8.20;;;5.73;;
9248;SDS011;4660;41.768;26.198;2022-10-16T05:13:58;8.60;;;6.07;;
9248;SDS011;4660;41.768;26.198;2022-10-16T05:16:24;11.33;;;7.43;;
9248;SDS011;4660;41.768;26.198;2022-10-16T05:18:51;9.50;;;7.30;;
9248;SDS011;4660;41.768;26.198;2022-10-16T05:21:17;7.60;;;6.93;;
9248;SDS011;4660;41.768;26.198;2022-10-16T05:23:42;13.37;;;8.33;;
9248;SDS011;4660;41.768;26.198;2022-10-16T05:26:08;11.57;;;8.30;;
9248;SDS011;4660;41.768;26.198;2022-10-16T05:28:34;10.27;;;8.20;;
9248;SDS011;4660;41.768;26.198;2022-10-16T05:31:04;8.77;;;7.63;;
9248;SDS011;4660;41.768;26.198;2022-10-16T05:33:34;12.13;;;7.70;;
9248;SDS011;4660;41.768;26.198;2022-10-16T05:36:01;10.00;;;7.77;;
9248;SDS011;4660;41.768;26.198;2022-10-16T05:38:28;10.03;;;7.90;;
9248;SDS011;4660;41.768;26.198;2022-10-16T05:40:53;11.50;;;8.00;;
9248;SDS011;4660;41.768;26.198;2022-10-16T05:43:20;10.50;;;7.90;;
9248;SDS011;4660;41.768;26.198;2022-10-16T05:48:22;15.97;;;8.67;;
9248;SDS011;4660;41.768;26.198;2022-10-16T05:50:48;10.63;;;7.73;;
9248;SDS011;4660;41.768;26.198;2022-10-16T05:53:15;10.57;;;8.00;;
9248;SDS011;4660;41.768;26.198;2022-10-16T05:55:40;12.83;;;7.30;;
9248;SDS011;4660;41.768;26.198;2022-10-16T05:58:06;9.43;;;6.97;;
9248;SDS011;4660;41.768;26.198;2022-10-16T06:00:32;8.07;;;6.67;;
9248;SDS011;4660;41.768;26.198;2022-10-16T06:02:58;12.30;;;6.87;;
9248;SDS011;4660;41.768;26.198;2022-10-16T06:05:24;10.83;;;7.87;;
9248;SDS011;4660;41.768;26.198;2022-10-16T06:07:52;8.07;;;6.07;;
9248;SDS011;4660;41.768;26.198;2022-10-16T06:10:20;10.03;;;6.50;;
9248;SDS011;4660;41.768;26.198;2022-10-16T06:12:49;10.53;;;6.20;;
9248;SDS011;4660;41.768;26.198;2022-10-16T06:15:15;10.33;;;6.07;;
9248;SDS011;4660;41.768;26.198;2022-10-16T06:17:42;10.40;;;6.20;;
9248;SDS011;4660;41.768;26.198;2022-10-16T06:20:08;8.10;;;5.87;;
9248;SDS011;4660;41.768;26.198;2022-10-16T06:22:34;11.23;;;6.43;;
9248;SDS011;4660;41.768;26.198;2022-10-16T06:25:00;5.30;;;4.80;;
9248;SDS011;4660;41.768;26.198;2022-10-16T06:27:26;10.40;;;5.67;;
9248;SDS011;4660;41.768;26.198;2022-10-16T06:29:51;11.93;;;6.57;;
9248;SDS011;4660;41.768;26.198;2022-10-16T06:32:19;10.67;;;6.20;;
9248;SDS011;4660;41.768;26.198;2022-10-16T06:34:45;9.77;;;6.77;;
9248;SDS011;4660;41.768;26.198;2022-10-16T06:37:11;12.77;;;6.20;;
9248;SDS011;4660;41.768;26.198;2022-10-16T06:39:37;11.67;;;5.83;;
9248;SDS011;4660;41.768;26.198;2022-10-16T06:42:02;7.67;;;6.00;;
9248;SDS011;4660;41.768;26.198;2022-10-16T06:44:28;9.10;;;5.80;;
9248;SDS011;4660;41.768;26.198;2022-10-16T06:46:53;7.13;;;5.70;;
9248;SDS011;4660;41.768;26.198;2022-10-16T06:49:19;7.00;;;5.70;;
9248;SDS011;4660;41.768;26.198;2022-10-16T06:51:47;10.07;;;5.33;;
9248;SDS011;4660;41.768;26.198;2022-10-16T06:54:14;12.87;;;5.67;;
9248;SDS011;4660;41.768;26.198;2022-10-16T06:56:42;7.60;;;4.77;;
9248;SDS011;4660;41.768;26.198;2022-10-16T06:59:07;6.57;;;5.20;;
9248;SDS011;4660;41.768;26.198;2022-10-16T07:01:33;9.43;;;5.70;;
9248;SDS011;4660;41.768;26.198;2022-10-16T07:04:00;14.87;;;5.27;;
9248;SDS011;4660;41.768;26.198;2022-10-16T07:06:30;7.83;;;5.17;;
9248;SDS011;4660;41.768;26.198;2022-10-16T07:08:57;8.23;;;4.90;;
9248;SDS011;4660;41.768;26.198;2022-10-16T07:11:23;9.87;;;5.83;;
9248;SDS011;4660;41.768;26.198;2022-10-16T07:13:50;8.23;;;5.13;;
9248;SDS011;4660;41.768;26.198;2022-10-16T07:16:17;6.20;;;5.23;;
9248;SDS011;4660;41.768;26.198;2022-10-16T07:18:45;6.13;;;4.43;;
9248;SDS011;4660;41.768;26.198;2022-10-16T07:21:13;8.20;;;4.97;;
9248;SDS011;4660;41.768;26.198;2022-10-16T07:23:44;11.53;;;4.90;;
9248;SDS011;4660;41.768;26.198;2022-10-16T07:26:10;9.77;;;4.57;;
9248;SDS011;4660;41.768;26.198;2022-10-16T07:28:36;9.30;;;4.30;;
9248;SDS011;4660;41.768;26.198;2022-10-16T07:31:03;14.07;;;5.00;;
9248;SDS011;4660;41.768;26.198;2022-10-16T07:33:35;9.67;;;5.23;;
9248;SDS011;4660;41.768;26.198;2022-10-16T07:36:01;9.97;;;4.77;;
9248;SDS011;4660;41.768;26.198;2022-10-16T07:38:28;7.33;;;5.10;;
9248;SDS011;4660;41.768;26.198;2022-10-16T07:41:01;9.57;;;5.13;;
9248;SDS011;4660;41.768;26.198;2022-10-16T07:43:28;5.73;;;3.90;;
9248;SDS011;4660;41.768;26.198;2022-10-16T07:45:54;6.60;;;4.40;;
9248;SDS011;4660;41.768;26.198;2022-10-16T07:48:20;6.00;;;3.80;;
9248;SDS011;4660;41.768;26.198;2022-10-16T07:50:47;5.60;;;4.27;;
9248;SDS011;4660;41.768;26.198;2022-10-16T07:53:15;7.17;;;4.60;;
9248;SDS011;4660;41.768;26.198;2022-10-16T07:55:41;7.87;;;4.27;;
9248;SDS011;4660;41.768;26.198;2022-10-16T07:58:06;5.43;;;3.77;;
9248;SDS011;4660;41.768;26.198;2022-10-16T08:00:35;8.37;;;4.23;;
9248;SDS011;4660;41.768;26.198;2022-10-16T08:03:01;9.50;;;3.77;;
9248;SDS011;4660;41.768;26.198;2022-10-16T08:05:28;6.77;;;3.83;;
9248;SDS011;4660;41.768;26.198;2022-10-16T08:07:54;8.27;;;3.47;;
9248;SDS011;4660;41.768;26.198;2022-10-16T08:10:22;6.53;;;3.63;;
9248;SDS011;4660;41.768;26.198;2022-10-16T08:12:49;5.50;;;3.47;;
9248;SDS011;4660;41.768;26.198;2022-10-16T08:15:16;7.10;;;3.50;;
9248;SDS011;4660;41.768;26.198;2022-10-16T08:17:42;7.60;;;3.00;;
9248;SDS011;4660;41.768;26.198;2022-10-16T08:20:10;4.82;;;2.85;;
9248;SDS011;4660;41.768;26.198;2022-10-16T08:22:36;3.63;;;3.00;;
9248;SDS011;4660;41.768;26.198;2022-10-16T08:25:02;5.27;;;2.90;;
9248;SDS011;4660;41.768;26.198;2022-10-16T08:27:32;4.47;;;2.90;;
9248;SDS011;4660;41.768;26.198;2022-10-16T08:30:00;5.15;;;3.15;;
9248;SDS011;4660;41.768;26.198;2022-10-16T08:32:26;4.32;;;3.05;;
9248;SDS011;4660;41.768;26.198;2022-10-16T08:34:51;3.37;;;2.57;;
9248;SDS011;4660;41.768;26.198;2022-10-16T08:37:17;3.07;;;2.50;;
9248;SDS011;4660;41.768;26.198;2022-10-16T08:39:43;2.97;;;2.50;;
9248;SDS011;4660;41.768;26.198;2022-10-16T08:50:57;4.80;;;2.85;;
9248;SDS011;4660;41.768;26.198;2022-10-16T08:53:25;3.95;;;3.03;;
9248;SDS011;4660;41.768;26.198;2022-10-16T08:55:56;4.20;;;3.17;;
9248;SDS011;4660;41.768;26.198;2022-10-16T08:58:28;4.90;;;3.08;;
9248;SDS011;4660;41.768;26.198;2022-10-16T09:01:01;2.80;;;2.40;;
9248;SDS011;4660;41.768;26.198;2022-10-16T09:06:34;5.07;;;3.05;;
9248;SDS011;4660;41.768;26.198;2022-10-16T09:19:53;5.43;;;2.83;;
9248;SDS011;4660;41.768;26.198;2022-10-16T09:22:40;6.32;;;2.47;;
9248;SDS011;4660;41.768;26.198;2022-10-16T09:25:11;3.05;;;2.40;;
9248;SDS011;4660;41.768;26.198;2022-10-16T09:27:53;5.13;;;2.80;;
9248;SDS011;4660;41.768;26.198;2022-10-16T09:30:20;4.47;;;2.33;;
9248;SDS011;4660;41.768;26.198;2022-10-16T09:32:48;5.22;;;2.65;;
9248;SDS011;4660;41.768;26.198;2022-10-16T09:35:20;4.88;;;2.65;;
9248;SDS011;4660;41.768;26.198;2022-10-16T09:37:51;3.13;;;2.53;;
9248;SDS011;4660;41.768;26.198;2022-10-16T09:40:24;4.03;;;2.88;;
9248;SDS011;4660;41.768;26.198;2022-10-16T09:46:08;6.40;;;2.58;;
9248;SDS011;4660;41.768;26.198;2022-10-16T09:48:57;4.30;;;2.50;;
9248;SDS011;4660;41.768;26.198;2022-10-16T09:51:26;2.78;;;2.25;;
9248;SDS011;4660;41.768;26.198;2022-10-16T09:54:13;4.28;;;2.50;;
9248;SDS011;4660;41.768;26.198;2022-10-16T09:56:40;4.38;;;2.88;;
9248;SDS011;4660;41.768;26.198;2022-10-16T09:59:13;4.82;;;2.35;;
9248;SDS011;4660;41.768;26.198;2022-10-16T10:01:48;3.83;;;2.90;;
9248;SDS011;4660;41.768;26.198;2022-10-16T10:04:19;3.42;;;2.70;;
9248;SDS011;4660;41.768;26.198;2022-10-16T10:06:51;5.13;;;2.80;;
9248;SDS011;4660;41.768;26.198;2022-10-16T10:09:26;3.75;;;3.03;;
9248;SDS011;4660;41.768;26.198;2022-10-16T10:11:58;5.60;;;2.70;;
9248;SDS011;4660;41.768;26.198;2022-10-16T10:14:38;4.47;;;2.80;;
9248;SDS011;4660;41.768;26.198;2022-10-16T10:17:21;3.72;;;2.58;;
9248;SDS011;4660;41.768;26.198;2022-10-16T10:19:49;4.10;;;2.83;;
9248;SDS011;4660;41.768;26.198;2022-10-16T10:22:16;2.75;;;2.50;;
9248;SDS011;4660;41.768;26.198;2022-10-16T10:24:54;6.28;;;2.45;;
9248;SDS011;4660;41.768;26.198;2022-10-16T10:30:35;4.47;;;2.40;;
9248;SDS011;4660;41.768;26.198;2022-10-16T10:33:12;2.50;;;2.13;;
9248;SDS011;4660;41.768;26.198;2022-10-16T10:36:16;2.83;;;2.25;;
9248;SDS011;4660;41.768;26.198;2022-10-16T10:47:58;4.90;;;2.30;;
9248;SDS011;4660;41.768;26.198;2022-10-16T10:58:19;2.80;;;2.30;;
9248;SDS011;4660;41.768;26.198;2022-10-16T11:15:03;2.72;;;2.20;;
9248;SDS011;4660;41.768;26.198;2022-10-16T11:17:52;5.90;;;2.50;;
9248;SDS011;4660;41.768;26.198;2022-10-16T11:20:33;3.03;;;2.13;;
9248;SDS011;4660;41.768;26.198;2022-10-16T11:23:18;5.70;;;1.95;;
9248;SDS011;4660;41.768;26.198;2022-10-16T11:26:13;4.70;;;2.03;;
9248;SDS011;4660;41.768;26.198;2022-10-16T11:28:49;5.95;;;2.80;;
9248;SDS011;4660;41.768;26.198;2022-10-16T11:31:47;6.15;;;2.67;;
9248;SDS011;4660;41.768;26.198;2022-10-16T11:37:36;4.95;;;2.65;;
9248;SDS011;4660;41.768;26.198;2022-10-16T11:40:29;4.68;;;2.35;;
9248;SDS011;4660;41.768;26.198;2022-10-16T11:43:10;5.45;;;2.13;;
9248;SDS011;4660;41.768;26.198;2022-10-16T11:45:46;3.67;;;2.17;;
9248;SDS011;4660;41.768;26.198;2022-10-16T11:56:31;4.57;;;2.20;;
9248;SDS011;4660;41.768;26.198;2022-10-16T11:59:06;4.60;;;2.65;;
9248;SDS011;4660;41.768;26.198;2022-10-16T12:07:22;3.97;;;2.30;;
9248;SDS011;4660;41.768;26.198;2022-10-16T12:09:53;6.57;;;2.10;;
9248;SDS011;4660;41.768;26.198;2022-10-16T12:17:45;4.07;;;2.40;;
9248;SDS011;4660;41.768;26.198;2022-10-16T12:20:26;2.83;;;2.33;;
9248;SDS011;4660;41.768;26.198;2022-10-16T12:23:00;2.80;;;2.30;;
9248;SDS011;4660;41.768;26.198;2022-10-16T12:25:37;3.85;;;2.60;;
9248;SDS011;4660;41.768;26.198;2022-10-16T12:30:41;3.40;;;2.17;;
9248;SDS011;4660;41.768;26.198;2022-10-16T12:33:19;3.95;;;2.40;;
9248;SDS011;4660;41.768;26.198;2022-10-16T12:35:48;5.82;;;2.53;;
9248;SDS011;4660;41.768;26.198;2022-10-16T12:40:42;3.22;;;2.42;;
9248;SDS011;4660;41.768;26.198;2022-10-16T12:46:01;3.92;;;2.50;;
9248;SDS011;4660;41.768;26.198;2022-10-16T12:48:31;3.45;;;2.42;;
9248;SDS011;4660;41.768;26.198;2022-10-16T12:51:08;3.28;;;2.55;;
9248;SDS011;4660;41.768;26.198;2022-10-16T12:54:01;4.53;;;2.40;;
9248;SDS011;4660;41.768;26.198;2022-10-16T12:59:46;3.80;;;2.63;;
9248;SDS011;4660;41.768;26.198;2022-10-16T13:10:26;10.48;;;3.28;;
9248;SDS011;4660;41.768;26.198;2022-10-16T13:30:18;3.80;;;2.60;;
9248;SDS011;4660;41.768;26.198;2022-10-16T13:33:23;4.57;;;2.65;;
9248;SDS011;4660;41.768;26.198;2022-10-16T13:36:19;3.92;;;2.30;;
9248;SDS011;4660;41.768;26.198;2022-10-16T13:44:43;5.30;;;2.67;;
9248;SDS011;4660;41.768;26.198;2022-10-16T13:47:17;3.90;;;2.60;;
9248;SDS011;4660;41.768;26.198;2022-10-16T13:49:58;3.00;;;2.15;;
9248;SDS011;4660;41.768;26.198;2022-10-16T13:52:27;6.78;;;2.58;;
9248;SDS011;4660;41.768;26.198;2022-10-16T13:54:53;3.70;;;2.40;;
9248;SDS011;4660;41.768;26.198;2022-10-16T13:57:21;3.80;;;2.40;;
9248;SDS011;4660;41.768;26.198;2022-10-16T13:59:48;5.13;;;2.65;;
9248;SDS011;4660;41.768;26.198;2022-10-16T14:02:17;2.92;;;2.40;;
9248;SDS011;4660;41.768;26.198;2022-10-16T14:04:52;3.40;;;2.63;;
9248;SDS011;4660;41.768;26.198;2022-10-16T14:07:23;5.85;;;2.60;;
9248;SDS011;4660;41.768;26.198;2022-10-16T14:09:54;4.80;;;2.67;;
9248;SDS011;4660;41.768;26.198;2022-10-16T14:12:22;2.60;;;2.35;;
9248;SDS011;4660;41.768;26.198;2022-10-16T14:14:50;7.40;;;3.38;;
9248;SDS011;4660;41.768;26.198;2022-10-16T14:17:23;5.15;;;2.70;;
9248;SDS011;4660;41.768;26.198;2022-10-16T14:19:53;2.95;;;2.60;;
9248;SDS011;4660;41.768;26.198;2022-10-16T14:25:01;5.60;;;2.47;;
9248;SDS011;4660;41.768;26.198;2022-10-16T14:27:38;3.08;;;2.50;;
9248;SDS011;4660;41.768;26.198;2022-10-16T14:32:34;3.58;;;2.92;;
9248;SDS011;4660;41.768;26.198;2022-10-16T14:35:01;4.97;;;3.00;;
9248;SDS011;4660;41.768;26.198;2022-10-16T14:37:27;6.03;;;3.10;;
9248;SDS011;4660;41.768;26.198;2022-10-16T14:39:55;5.70;;;2.75;;
9248;SDS011;4660;41.768;26.198;2022-10-16T14:42:22;4.60;;;3.00;;
9248;SDS011;4660;41.768;26.198;2022-10-16T14:44:51;4.05;;;2.67;;
9248;SDS011;4660;41.768;26.198;2022-10-16T14:47:21;3.65;;;2.67;;
9248;SDS011;4660;41.768;26.198;2022-10-16T14:49:54;6.15;;;3.28;;
9248;SDS011;4660;41.768;26.198;2022-10-16T14:52:24;6.03;;;3.03;;
9248;SDS011;4660;41.768;26.198;2022-10-16T14:54:53;5.18;;;3.25;;
9248;SDS011;4660;41.768;26.198;2022-10-16T14:57:23;4.30;;;2.92;;
9248;SDS011;4660;41.768;26.198;2022-10-16T14:59:52;4.53;;;2.97;;
9248;SDS011;4660;41.768;26.198;2022-10-16T15:02:32;3.15;;;2.63;;
9248;SDS011;4660;41.768;26.198;2022-10-16T15:07:45;4.90;;;2.88;;
9248;SDS011;4660;41.768;26.198;2022-10-16T15:10:12;6.97;;;3.30;;
9248;SDS011;4660;41.768;26.198;2022-10-16T15:12:41;5.97;;;2.90;;
9248;SDS011;4660;41.768;26.198;2022-10-16T15:17:58;4.63;;;3.03;;
9248;SDS011;4660;41.768;26.198;2022-10-16T15:20:35;5.93;;;2.80;;
9248;SDS011;4660;41.768;26.198;2022-10-16T15:23:04;6.93;;;2.72;;
9248;SDS011;4660;41.768;26.198;2022-10-16T15:28:07;3.45;;;2.80;;
9248;SDS011;4660;41.768;26.198;2022-10-16T15:30:33;6.90;;;3.20;;
9248;SDS011;4660;41.768;26.198;2022-10-16T15:33:00;6.25;;;4.10;;
9248;SDS011;4660;41.768;26.198;2022-10-16T15:35:27;9.70;;;4.78;;
9248;SDS011;4660;41.768;26.198;2022-10-16T15:37:54;7.82;;;5.38;;
9248;SDS011;4660;41.768;26.198;2022-10-16T15:40:20;8.95;;;5.15;;
9248;SDS011;4660;41.768;26.198;2022-10-16T15:42:47;5.38;;;4.38;;
9248;SDS011;4660;41.768;26.198;2022-10-16T15:45:14;7.60;;;4.32;;
9248;SDS011;4660;41.768;26.198;2022-10-16T15:47:41;8.27;;;4.38;;
9248;SDS011;4660;41.768;26.198;2022-10-16T15:50:11;6.90;;;4.85;;
9248;SDS011;4660;41.768;26.198;2022-10-16T15:52:38;9.43;;;6.15;;
9248;SDS011;4660;41.768;26.198;2022-10-16T15:55:08;9.05;;;6.43;;
9248;SDS011;4660;41.768;26.198;2022-10-16T15:57:35;10.63;;;6.60;;
9248;SDS011;4660;41.768;26.198;2022-10-16T16:00:07;12.83;;;7.53;;
9248;SDS011;4660;41.768;26.198;2022-10-16T16:02:36;9.20;;;6.93;;
9248;SDS011;4660;41.768;26.198;2022-10-16T16:05:02;7.95;;;5.90;;
9248;SDS011;4660;41.768;26.198;2022-10-16T16:07:32;7.70;;;5.30;;
9248;SDS011;4660;41.768;26.198;2022-10-16T16:10:09;6.50;;;4.75;;
9248;SDS011;4660;41.768;26.198;2022-10-16T16:12:36;5.40;;;3.93;;
9248;SDS011;4660;41.768;26.198;2022-10-16T16:15:24;15.30;;;4.65;;
9248;SDS011;4660;41.768;26.198;2022-10-16T16:17:50;4.72;;;3.95;;
9248;SDS011;4660;41.768;26.198;2022-10-16T16:20:16;10.95;;;5.13;;
9248;SDS011;4660;41.768;26.198;2022-10-16T16:23:02;5.57;;;4.40;;
9248;SDS011;4660;41.768;26.198;2022-10-16T16:25:36;6.20;;;4.37;;
9248;SDS011;4660;41.768;26.198;2022-10-16T16:28:04;8.33;;;4.13;;
9248;SDS011;4660;41.768;26.198;2022-10-16T16:30:43;6.33;;;3.50;;
9248;SDS011;4660;41.768;26.198;2022-10-16T16:33:11;9.20;;;3.80;;
9248;SDS011;4660;41.768;26.198;2022-10-16T16:35:37;6.83;;;3.90;;
9248;SDS011;4660;41.768;26.198;2022-10-16T16:38:02;6.37;;;3.63;;
9248;SDS011;4660;41.768;26.198;2022-10-16T16:40:28;5.03;;;3.53;;
9248;SDS011;4660;41.768;26.198;2022-10-16T16:42:55;4.70;;;3.50;;
9248;SDS011;4660;41.768;26.198;2022-10-16T16:45:21;7.07;;;3.20;;
9248;SDS011;4660;41.768;26.198;2022-10-16T16:47:47;5.07;;;3.30;;
9248;SDS011;4660;41.768;26.198;2022-10-16T16:50:15;6.87;;;3.00;;
9248;SDS011;4660;41.768;26.198;2022-10-16T16:52:41;7.40;;;3.67;;
9248;SDS011;4660;41.768;26.198;2022-10-16T16:55:07;9.17;;;5.00;;
9248;SDS011;4660;41.768;26.198;2022-10-16T16:57:33;7.40;;;5.53;;
9248;SDS011;4660;41.768;26.198;2022-10-16T16:59:59;7.40;;;5.20;;
9248;SDS011;4660;41.768;26.198;2022-10-16T17:02:25;9.45;;;6.45;;
9248;SDS011;4660;41.768;26.198;2022-10-16T17:04:52;14.70;;;7.73;;
9248;SDS011;4660;41.768;26.198;2022-10-16T17:07:18;7.60;;;4.63;;
9248;SDS011;4660;41.768;26.198;2022-10-16T17:09:44;4.63;;;3.73;;
9248;SDS011;4660;41.768;26.198;2022-10-16T17:12:10;7.20;;;4.80;;
9248;SDS011;4660;41.768;26.198;2022-10-16T17:14:36;5.97;;;4.60;;
9248;SDS011;4660;41.768;26.198;2022-10-16T17:17:02;7.17;;;4.53;;
9248;SDS011;4660;41.768;26.198;2022-10-16T17:19:28;7.70;;;3.87;;
9248;SDS011;4660;41.768;26.198;2022-10-16T17:21:54;10.63;;;3.50;;
9248;SDS011;4660;41.768;26.198;2022-10-16T17:24:21;6.53;;;3.30;;
9248;SDS011;4660;41.768;26.198;2022-10-16T17:26:48;4.47;;;2.70;;
9248;SDS011;4660;41.768;26.198;2022-10-16T17:29:14;5.83;;;3.43;;
9248;SDS011;4660;41.768;26.198;2022-10-16T17:31:43;4.03;;;2.37;;
9248;SDS011;4660;41.768;26.198;2022-10-16T17:34:09;3.87;;;2.53;;
9248;SDS011;4660;41.768;26.198;2022-10-16T17:36:37;3.70;;;2.30;;
9248;SDS011;4660;41.768;26.198;2022-10-16T17:39:09;5.37;;;2.33;;
9248;SDS011;4660;41.768;26.198;2022-10-16T17:41:37;4.27;;;2.33;;
9248;SDS011;4660;41.768;26.198;2022-10-16T17:44:03;7.00;;;2.57;;